Time;durP1;ratioP1;P1;durP2;ratioP2;P2;SDS_P1;SDS_P2;PMS_P1;PMS_P2;Temp;Humidity;BMP_temperature;BMP_pressure;BME280_temperature;BME280_humidity;BME280_pressure;Samples;Min_cycle;Max_cycle;Signal;HPM_P1;HPM_P2
2023/05/23 00:01:30;;;;;;;14.13;9.93;;;15.90;99.90;;;;;;5113714;28;20047;-54
2023/05/23 00:03:57;;;;;;;16.88;8.77;;;16.00;99.90;;;;;;5111261;28;20126;-55
2023/05/23 00:06:25;;;;;;;16.30;9.57;;;16.00;99.90;;;;;;5114824;28;20076;-54
2023/05/23 00:08:52;;;;;;;15.50;9.57;;;16.10;99.90;;;;;;5115168;28;20059;-55
2023/05/23 00:11:22;;;;;;;14.43;9.15;;;16.00;99.90;;;;;;5105630;28;20075;-54
2023/05/23 00:13:50;;;;;;;13.95;9.55;;;16.00;99.90;;;;;;5101180;28;20035;-54
2023/05/23 00:16:16;;;;;;;12.43;9.25;;;16.00;99.90;;;;;;5110490;28;20118;-54
2023/05/23 00:18:44;;;;;;;14.07;8.82;;;16.00;99.90;;;;;;5103220;28;20123;-54
2023/05/23 00:21:12;;;;;;;12.35;8.57;;;16.00;99.90;;;;;;5106622;28;20076;-56
2023/05/23 00:23:41;;;;;;;12.63;8.55;;;16.00;99.90;;;;;;5109753;28;20507;-54
2023/05/23 00:26:08;;;;;;;11.38;8.68;;;15.90;99.90;;;;;;5111279;28;20038;-55
2023/05/23 00:28:37;;;;;;;12.40;8.20;;;15.90;99.90;;;;;;5096596;28;20035;-54
2023/05/23 00:31:04;;;;;;;12.38;8.70;;;15.90;99.90;;;;;;5105161;28;20036;-54
2023/05/23 00:33:33;;;;;;;15.10;8.73;;;15.90;99.90;;;;;;5095758;28;20034;-56
2023/05/23 00:36:01;;;;;;;12.70;8.43;;;15.90;99.90;;;;;;5095562;28;20047;-54
2023/05/23 00:38:28;;;;;;;11.65;8.63;;;15.90;99.90;;;;;;5104614;28;20039;-55
2023/05/23 00:40:55;;;;;;;13.05;8.60;;;15.90;99.90;;;;;;5101348;28;20118;-54
2023/05/23 00:43:22;;;;;;;13.63;8.73;;;15.90;99.90;;;;;;5095869;28;20055;-54
2023/05/23 00:45:48;;;;;;;15.70;9.02;;;15.90;99.90;;;;;;5114317;28;20051;-54
2023/05/23 00:48:15;;;;;;;11.10;8.23;;;15.90;99.90;;;;;;5108561;28;20040;-54
2023/05/23 00:50:42;;;;;;;13.13;8.68;;;16.00;99.90;;;;;;5095900;28;20040;-54
2023/05/23 00:53:09;;;;;;;12.93;8.70;;;16.00;99.90;;;;;;5095486;28;20042;-54
2023/05/23 00:55:38;;;;;;;12.07;8.68;;;15.90;99.90;;;;;;5112619;28;20115;-54
2023/05/23 00:58:05;;;;;;;14.27;8.88;;;15.90;99.90;;;;;;5109474;28;20096;-54
2023/05/23 01:00:33;;;;;;;12.80;9.35;;;15.80;99.90;;;;;;5113441;28;20035;-54
2023/05/23 01:03:00;;;;;;;17.63;9.95;;;15.60;99.90;;;;;;5105906;28;20058;-55
2023/05/23 01:05:27;;;;;;;15.13;10.18;;;15.40;99.90;;;;;;5095017;28;20120;-54
2023/05/23 01:07:54;;;;;;;15.13;10.32;;;15.20;99.90;;;;;;5110729;28;20074;-54
2023/05/23 01:10:29;;;;;;;16.50;10.05;;;15.10;99.90;;;;;;5095080;28;20146;-56
2023/05/23 01:13:37;;;;;;;16.88;11.38;;;15.00;99.90;;;;;;5104605;28;20037;-54
2023/05/23 01:16:13;;;;;;;12.23;9.18;;;14.90;99.90;;;;;;5108804;27;20538;-54
2023/05/23 01:19:04;;;;;;;15.55;10.50;;;14.90;99.90;;;;;;5086202;28;20483;-54
2023/05/23 01:21:33;;;;;;;13.65;9.30;;;14.90;99.90;;;;;;5086945;28;20097;-54
2023/05/23 01:24:09;;;;;;;16.92;9.63;;;14.90;99.90;;;;;;5112814;28;20043;-54
2023/05/23 01:26:52;;;;;;;15.85;9.05;;;14.90;99.90;;;;;;5104697;28;20110;-57
2023/05/23 01:29:23;;;;;;;14.63;8.82;;;15.00;99.90;;;;;;5104087;28;20036;-54
2023/05/23 01:31:53;;;;;;;15.93;9.20;;;15.00;99.90;;;;;;5104970;28;20113;-54
2023/05/23 01:34:21;;;;;;;13.68;9.90;;;15.10;99.90;;;;;;5093619;28;20036;-54
2023/05/23 01:36:56;;;;;;;15.35;9.38;;;15.00;99.90;;;;;;5095409;28;20403;-54
2023/05/23 01:39:23;;;;;;;15.00;9.10;;;15.00;99.90;;;;;;5103455;28;20047;-55
2023/05/23 01:41:51;;;;;;;18.23;9.73;;;15.00;99.90;;;;;;5086692;28;20047;-54
2023/05/23 01:44:19;;;;;;;14.35;9.65;;;14.90;99.90;;;;;;5094327;28;20031;-54
2023/05/23 01:46:47;;;;;;;19.45;10.48;;;14.90;99.90;;;;;;5092678;28;20122;-54
2023/05/23 01:49:17;;;;;;;17.27;9.63;;;14.80;99.90;;;;;;5092597;28;20422;-55
2023/05/23 01:51:45;;;;;;;20.55;9.60;;;14.80;99.90;;;;;;5112439;28;20058;-54
2023/05/23 01:54:15;;;;;;;17.80;10.05;;;14.80;99.90;;;;;;5094928;28;20383;-54
2023/05/23 01:56:43;;;;;;;12.68;9.20;;;14.80;99.90;;;;;;5093897;28;20096;-54
2023/05/23 01:59:11;;;;;;;13.23;8.77;;;14.80;99.90;;;;;;5094654;28;20093;-54
2023/05/23 02:01:38;;;;;;;13.90;9.68;;;14.90;99.90;;;;;;5094709;28;20089;-54
2023/05/23 02:04:05;;;;;;;14.32;9.55;;;14.90;99.90;;;;;;5092402;28;20040;-54
2023/05/23 02:06:33;;;;;;;15.38;10.38;;;14.90;99.90;;;;;;5085926;28;20130;-55
2023/05/23 02:08:59;;;;;;;;;;;14.90;99.90;;;;;;5094680;28;20075;-54
2023/05/23 02:11:26;;;;;;;12.65;8.95;;;15.00;99.90;;;;;;5091245;28;19920;-56
2023/05/23 02:13:53;;;;;;;12.70;8.95;;;15.00;99.90;;;;;;5094201;28;20059;-54
2023/05/23 02:16:20;;;;;;;14.55;9.10;;;15.00;99.90;;;;;;5092784;28;20067;-54
2023/05/23 02:18:48;;;;;;;16.60;9.93;;;15.00;99.90;;;;;;5094587;28;20515;-54
2023/05/23 02:21:14;;;;;;;14.32;9.57;;;14.90;99.90;;;;;;5084564;28;20114;-56
2023/05/23 02:23:41;;;;;;;14.43;9.90;;;14.80;99.90;;;;;;5112525;28;20036;-54
2023/05/23 02:26:08;;;;;;;15.00;9.05;;;14.80;99.90;;;;;;5093917;28;20772;-54
2023/05/23 02:28:35;;;;;;;20.10;9.25;;;14.80;99.90;;;;;;5093508;28;20062;-54
2023/05/23 02:31:02;;;;;;;13.23;9.23;;;14.80;99.90;;;;;;5084754;28;20044;-54
2023/05/23 02:33:28;;;;;;;16.75;9.48;;;14.70;99.90;;;;;;5085460;28;20501;-54
2023/05/23 02:35:55;;;;;;;13.82;8.95;;;14.60;99.90;;;;;;5092484;28;20043;-54
2023/05/23 02:38:22;;;;;;;11.20;8.55;;;14.60;99.90;;;;;;5112402;28;20459;-54
2023/05/23 02:40:52;;;;;;;13.43;8.75;;;14.60;99.90;;;;;;5093374;28;20058;-54
2023/05/23 02:43:19;;;;;;;15.35;9.38;;;14.60;99.90;;;;;;5090845;28;20044;-54
2023/05/23 02:45:46;;;;;;;14.85;10.10;;;14.60;99.90;;;;;;5112622;27;20036;-54
2023/05/23 02:48:14;;;;;;;17.88;9.60;;;14.60;99.90;;;;;;5090991;28;20043;-56
2023/05/23 02:50:40;;;;;;;16.65;10.38;;;14.50;99.90;;;;;;5093772;28;20077;-54
2023/05/23 02:53:07;;;;;;;16.70;10.80;;;14.40;99.90;;;;;;5091207;28;20518;-55
2023/05/23 02:55:34;;;;;;;13.23;9.50;;;14.30;99.90;;;;;;5093401;28;20054;-54
2023/05/23 02:58:04;;;;;;;13.85;8.70;;;14.20;99.90;;;;;;5085835;28;20416;-54
2023/05/23 03:00:31;;;;;;;13.32;9.10;;;14.20;99.90;;;;;;5093108;28;20040;-54
2023/05/23 03:02:58;;;;;;;16.45;9.32;;;14.30;99.90;;;;;;5119087;27;20039;-54
2023/05/23 03:05:25;;;;;;;14.52;9.00;;;14.40;99.90;;;;;;5093452;28;20171;-55
2023/05/23 03:07:53;;;;;;;14.43;8.85;;;14.40;99.90;;;;;;5089611;28;20046;-56
2023/05/23 03:10:20;;;;;;;15.00;10.00;;;14.50;99.90;;;;;;5105620;28;20059;-54
2023/05/23 03:12:47;;;;;;;14.63;9.00;;;14.50;99.90;;;;;;5111869;28;20028;-54
2023/05/23 03:15:15;;;;;;;14.23;8.40;;;14.50;99.90;;;;;;5093245;28;20073;-54
2023/05/23 03:17:43;;;;;;;14.85;9.00;;;14.60;99.90;;;;;;5093535;28;20046;-54
2023/05/23 03:20:10;;;;;;;13.23;9.35;;;14.60;99.90;;;;;;5092657;28;20543;-54
2023/05/23 03:22:37;;;;;;;13.68;9.15;;;14.60;99.90;;;;;;5079233;28;20498;-54
2023/05/23 03:25:05;;;;;;;14.52;9.20;;;14.70;99.90;;;;;;5091690;28;20042;-54
2023/05/23 03:27:32;;;;;;;16.42;9.73;;;14.70;99.90;;;;;;5092656;28;20081;-54
2023/05/23 03:29:59;;;;;;;18.02;10.55;;;14.70;99.90;;;;;;5091251;28;20077;-54
2023/05/23 03:32:26;;;;;;;20.80;10.25;;;14.80;99.90;;;;;;5110967;28;20077;-54
2023/05/23 03:34:53;;;;;;;17.05;10.85;;;14.80;99.90;;;;;;5091207;28;20126;-54
2023/05/23 03:37:20;;;;;;;16.33;10.68;;;14.80;99.90;;;;;;5091151;28;20040;-54
2023/05/23 03:39:47;;;;;;;14.63;9.68;;;14.80;99.90;;;;;;5073587;28;20043;-54
2023/05/23 03:42:14;;;;;;;14.70;10.00;;;14.70;99.90;;;;;;5110809;28;20047;-54
2023/05/23 03:44:41;;;;;;;15.85;9.88;;;14.50;99.90;;;;;;5090257;28;20051;-55
2023/05/23 03:47:08;;;;;;;16.58;10.10;;;14.40;99.90;;;;;;5090671;28;20038;-54
2023/05/23 03:49:38;;;;;;;17.02;10.73;;;14.40;99.90;;;;;;5089809;28;20040;-54
2023/05/23 03:52:05;;;;;;;16.15;11.23;;;14.50;99.90;;;;;;5109325;28;20114;-54
2023/05/23 03:54:33;;;;;;;13.43;10.05;;;14.60;99.90;;;;;;5117765;28;20045;-54
2023/05/23 03:57:00;;;;;;;15.55;10.50;;;14.60;99.90;;;;;;5085585;28;20560;-56
2023/05/23 03:59:28;;;;;;;18.20;10.40;;;14.50;99.90;;;;;;5088947;28;20046;-58
2023/05/23 04:01:57;;;;;;;16.20;11.45;;;14.50;99.90;;;;;;5089853;28;20605;-54
2023/05/23 04:04:25;;;;;;;22.83;11.38;;;14.40;99.90;;;;;;5088143;28;20147;-54
2023/05/23 04:06:52;;;;;;;16.48;10.95;;;14.50;99.90;;;;;;5089169;28;20040;-53
2023/05/23 04:09:19;;;;;;;21.00;12.18;;;14.50;99.90;;;;;;5089964;28;20044;-54
2023/05/23 04:11:48;;;;;;;18.17;11.63;;;14.50;99.90;;;;;;5083118;28;20058;-54
2023/05/23 04:14:16;;;;;;;17.67;11.80;;;14.50;99.90;;;;;;5089353;28;20050;-56
2023/05/23 04:16:43;;;;;;;19.02;12.18;;;14.50;99.90;;;;;;5114011;28;20082;-56
2023/05/23 04:19:11;;;;;;;19.33;12.95;;;14.60;99.90;;;;;;5096655;28;20040;-55
2023/05/23 04:21:38;;;;;;;17.00;11.43;;;14.60;99.90;;;;;;5095328;28;20495;-54
2023/05/23 04:24:08;;;;;;;17.83;12.10;;;14.60;99.90;;;;;;5096667;28;20039;-54
2023/05/23 04:26:35;;;;;;;16.08;11.27;;;14.70;99.90;;;;;;5096560;28;20066;-54
2023/05/23 04:29:04;;;;;;;18.83;11.30;;;14.80;99.90;;;;;;5095024;28;20458;-54
2023/05/23 04:31:32;;;;;;;19.45;12.07;;;14.80;99.90;;;;;;5094089;28;20054;-54
2023/05/23 04:34:01;;;;;;;17.70;11.68;;;14.90;99.90;;;;;;5093107;28;20074;-56
2023/05/23 04:36:29;;;;;;;21.08;12.10;;;14.90;99.90;;;;;;5089737;28;20040;-54
2023/05/23 04:38:56;;;;;;;19.23;11.05;;;15.00;99.90;;;;;;5095909;28;20044;-54
2023/05/23 04:41:23;;;;;;;20.52;10.90;;;15.10;99.90;;;;;;5121568;27;20043;-54
2023/05/23 04:44:02;;;;;;;16.60;10.60;;;15.10;99.90;;;;;;5114617;28;20042;-55
2023/05/23 04:46:40;;;;;;;16.40;9.80;;;15.20;99.90;;;;;;5092013;28;20454;-54
2023/05/23 04:49:28;;;;;;;14.05;9.93;;;15.20;99.90;;;;;;5113759;28;20592;-54
2023/05/23 04:51:55;;;;;;;15.23;9.73;;;15.30;99.90;;;;;;5095535;28;20054;-57
2023/05/23 04:54:30;;;;;;;16.17;11.10;;;15.30;99.90;;;;;;5092413;28;20128;-56
2023/05/23 04:56:59;;;;;;;19.45;11.15;;;15.40;99.90;;;;;;5083880;28;20043;-55
2023/05/23 04:59:28;;;;;;;17.45;11.48;;;15.40;99.90;;;;;;5085154;28;20047;-55
2023/05/23 05:01:55;;;;;;;17.20;10.55;;;15.50;99.90;;;;;;5071899;28;20044;-56
2023/05/23 05:04:22;;;;;;;14.30;9.68;;;15.60;99.90;;;;;;5083332;28;20075;-55
2023/05/23 05:06:51;;;;;;;17.98;10.73;;;15.80;99.90;;;;;;5078663;28;20036;-54
2023/05/23 05:09:18;;;;;;;16.85;10.30;;;15.90;99.90;;;;;;5095086;28;20042;-56
2023/05/23 05:11:45;;;;;;;;;;;16.00;99.90;;;;;;5095712;28;20544;-53
2023/05/23 05:14:13;;;;;;;26.80;12.25;;;16.10;99.90;;;;;;5082864;28;19926;-54
2023/05/23 05:16:41;;;;;;;17.92;12.27;;;16.20;99.90;;;;;;5110477;28;20506;-54
2023/05/23 05:19:09;;;;;;;22.00;13.43;;;16.30;99.90;;;;;;5078876;28;20039;-57
2023/05/23 05:21:36;;;;;;;18.48;13.55;;;16.50;99.90;;;;;;5087652;28;20734;-54
2023/05/23 05:24:03;;;;;;;19.63;13.27;;;16.60;99.90;;;;;;5092988;28;20039;-55
2023/05/23 05:26:30;;;;;;;19.83;14.07;;;16.70;99.90;;;;;;5092794;28;20044;-54
2023/05/23 05:28:57;;;;;;;19.80;13.70;;;16.80;99.90;;;;;;5089320;28;20046;-54
2023/05/23 05:31:25;;;;;;;23.90;13.43;;;16.90;99.90;;;;;;5086355;28;20071;-55
2023/05/23 05:33:52;;;;;;;19.00;12.85;;;16.90;99.90;;;;;;5094461;28;20040;-56
2023/05/23 05:36:20;;;;;;;19.80;12.75;;;17.10;99.90;;;;;;5113006;28;20163;-55
2023/05/23 05:38:48;;;;;;;20.45;13.45;;;17.10;99.90;;;;;;5094097;28;20493;-54
2023/05/23 05:41:18;;;;;;;26.25;13.70;;;16.90;99.90;;;;;;5085643;28;20040;-55
2023/05/23 05:43:48;;;;;;;21.13;13.60;;;16.90;99.90;;;;;;5087119;28;20048;-54
2023/05/23 05:46:14;;;;;;;21.17;14.13;;;16.70;99.90;;;;;;5094807;28;20050;-54
2023/05/23 05:48:41;;;;;;;19.98;14.52;;;16.80;99.90;;;;;;5094513;28;20032;-56
2023/05/23 05:51:11;;;;;;;21.25;14.88;;;16.80;99.90;;;;;;5094428;28;20179;-56
2023/05/23 05:53:39;;;;;;;19.35;13.45;;;16.90;99.90;;;;;;5091273;28;20112;-55
2023/05/23 05:56:07;;;;;;;19.05;13.43;;;17.10;99.90;;;;;;5086038;28;20050;-56
2023/05/23 05:58:35;;;;;;;22.40;14.00;;;17.20;99.90;;;;;;5091124;28;20088;-54
2023/05/23 06:01:06;;;;;;;17.23;12.40;;;17.30;99.90;;;;;;5082784;28;20048;-54
2023/05/23 06:03:33;;;;;;;16.65;10.00;;;17.40;99.90;;;;;;5082495;28;20055;-54
2023/05/23 06:06:00;;;;;;;14.95;10.48;;;17.50;99.90;;;;;;5103852;28;20046;-54
2023/05/23 06:08:27;;;;;;;16.98;9.75;;;17.70;99.90;;;;;;5093105;28;20042;-54
2023/05/23 06:10:55;;;;;;;17.08;9.98;;;17.90;99.90;;;;;;5093009;28;20042;-55
2023/05/23 06:13:24;;;;;;;14.13;9.82;;;18.00;99.90;;;;;;5083969;28;20499;-54
2023/05/23 06:15:52;;;;;;;16.45;9.88;;;18.20;99.90;;;;;;5093622;28;20046;-54
2023/05/23 06:18:19;;;;;;;13.05;9.00;;;18.30;99.90;;;;;;5093885;28;20048;-54
2023/05/23 06:20:46;;;;;;;14.27;10.02;;;18.30;99.90;;;;;;5090893;28;20085;-54
2023/05/23 06:23:15;;;;;;;16.65;10.00;;;18.20;99.90;;;;;;5092797;28;20523;-54
2023/05/23 06:25:43;;;;;;;15.02;10.07;;;18.30;99.90;;;;;;5092598;28;20039;-55
2023/05/23 06:28:11;;;;;;;13.23;10.02;;;18.30;99.90;;;;;;5093765;28;20039;-54
2023/05/23 06:30:38;;;;;;;13.68;9.90;;;18.50;99.90;;;;;;5082918;28;20062;-54
2023/05/23 06:33:06;;;;;;;14.10;9.10;;;18.70;99.90;;;;;;5085242;28;20036;-55
2023/05/23 06:35:33;;;;;;;16.17;10.75;;;18.80;99.90;;;;;;5067093;28;20068;-54
2023/05/23 06:38:00;;;;;;;13.35;9.85;;;18.80;99.90;;;;;;5103237;28;20040;-54
2023/05/23 06:40:27;;;;;;;14.57;10.40;;;18.50;99.90;;;;;;5092425;28;20043;-54
2023/05/23 06:42:54;;;;;;;17.35;9.90;;;18.30;99.90;;;;;;5093578;28;20046;-54
2023/05/23 06:45:46;;;;;;;15.40;9.63;;;18.40;99.90;;;;;;5092375;28;20511;-54
2023/05/23 06:48:13;;;;;;;16.13;10.23;;;18.50;99.90;;;;;;5093419;28;20496;-55
2023/05/23 06:50:40;;;;;;;17.13;10.48;;;18.40;99.90;;;;;;5089476;28;20093;-54
2023/05/23 06:53:09;;;;;;;11.75;9.82;;;18.50;99.90;;;;;;5087450;28;20089;-55
2023/05/23 06:55:36;;;;;;;15.80;10.50;;;18.40;99.90;;;;;;5083645;28;20039;-54
2023/05/23 06:58:05;;;;;;;15.23;9.73;;;18.10;99.90;;;;;;5092905;28;20050;-54
2023/05/23 07:00:32;;;;;;;16.95;10.20;;;18.10;99.90;;;;;;5087787;28;20044;-54
2023/05/23 07:03:06;;;;;;;13.93;9.85;;;18.00;99.90;;;;;;5081006;28;20040;-58
2023/05/23 07:05:35;;;;;;;13.05;9.68;;;18.00;99.90;;;;;;5089883;28;20504;-54
2023/05/23 07:08:09;;;;;;;14.73;9.23;;;18.00;99.90;;;;;;5087421;28;20036;-56
2023/05/23 07:10:38;;;;;;;15.75;9.88;;;18.00;99.90;;;;;;5090677;28;20131;-54
2023/05/23 07:13:16;;;;;;;15.20;10.00;;;18.00;99.90;;;;;;5079769;28;20027;-54
2023/05/23 07:15:43;;;;;;;14.02;9.25;;;18.00;99.90;;;;;;5083802;28;20101;-55
2023/05/23 07:18:13;;;;;;;15.70;9.63;;;18.20;99.90;;;;;;5092974;28;20080;-54
2023/05/23 07:20:40;;;;;;;15.00;8.52;;;18.40;99.90;;;;;;5087069;28;20523;-54
2023/05/23 07:23:12;;;;;;;17.10;8.75;;;18.60;99.90;;;;;;5088049;28;20047;-54
2023/05/23 07:25:41;;;;;;;;;;;18.90;99.90;;;;;;5093013;28;20527;-54
2023/05/23 07:28:27;;;;;;;14.65;9.90;;;19.00;99.90;;;;;;5091977;28;20269;-54
2023/05/23 07:30:57;;;;;;;16.63;8.93;;;19.10;99.90;;;;;;5118088;28;20039;-54
2023/05/23 07:33:24;;;;;;;16.70;8.73;;;19.30;99.90;;;;;;5111264;28;20092;-54
2023/05/23 07:35:54;;;;;;;13.23;7.68;;;19.20;99.90;;;;;;5083118;28;20047;-54
2023/05/23 07:38:21;;;;;;;13.25;9.00;;;18.70;99.90;;;;;;5102670;28;20043;-54
2023/05/23 07:40:48;;;;;;;12.55;8.82;;;18.50;99.90;;;;;;5082642;28;20118;-54
2023/05/23 07:43:33;;;;;;;11.40;7.80;;;18.30;99.90;;;;;;5083879;28;20050;-54
2023/05/23 07:46:00;;;;;;;14.05;9.23;;;18.00;99.90;;;;;;5110581;28;20403;-55
2023/05/23 07:48:27;;;;;;;;;;;17.60;99.90;;;;;;5104145;28;20044;-57
2023/05/23 07:50:54;;;;;;;17.83;9.77;;;17.40;99.90;;;;;;5096148;28;20392;-57
2023/05/23 07:53:22;;;;;;;19.45;10.48;;;17.20;99.90;;;;;;5096358;28;20085;-54
2023/05/23 07:55:49;;;;;;;13.00;8.55;;;16.90;99.90;;;;;;5095893;28;20032;-54
2023/05/23 07:58:16;;;;;;;;;;;16.70;99.90;;;;;;5114739;27;20051;-54
2023/05/23 08:00:44;;;;;;;14.10;9.65;;;16.60;99.90;;;;;;5078259;28;19920;-55
2023/05/23 08:03:25;;;;;;;19.27;10.48;;;16.40;99.90;;;;;;5094296;28;20075;-54
2023/05/23 08:06:03;;;;;;;16.77;10.32;;;16.30;99.90;;;;;;5096429;28;20047;-54
2023/05/23 08:08:30;;;;;;;;;;;16.20;99.90;;;;;;5121570;27;20048;-55
2023/05/23 08:10:57;;;;;;;18.75;10.73;;;16.20;99.90;;;;;;5093997;28;19969;-54
2023/05/23 08:13:30;;;;;;;15.23;10.30;;;16.10;99.90;;;;;;5088336;28;20500;-54
2023/05/23 08:16:15;;;;;;;18.60;10.57;;;16.10;99.90;;;;;;5114632;28;20065;-54
2023/05/23 08:18:43;;;;;;;16.35;10.95;;;16.00;99.90;;;;;;5096226;28;20089;-54
2023/05/23 08:21:10;;;;;;;19.70;10.82;;;16.00;99.90;;;;;;5088701;28;20131;-55
2023/05/23 08:23:36;;;;;;;18.95;10.90;;;16.00;99.90;;;;;;5085427;28;20079;-54
2023/05/23 08:26:04;;;;;;;17.15;10.82;;;16.00;99.90;;;;;;5095642;28;20058;-54
2023/05/23 08:28:33;;;;;;;15.27;10.50;;;16.10;99.90;;;;;;5096097;28;20704;-54
2023/05/23 08:31:02;;;;;;;17.88;10.45;;;16.10;99.90;;;;;;5095010;28;20126;-54
2023/05/23 08:33:30;;;;;;;;;;;16.10;99.90;;;;;;5096210;28;20438;-54
2023/05/23 08:35:58;;;;;;;15.75;9.57;;;16.10;99.90;;;;;;5091997;28;20431;-54
2023/05/23 08:38:26;;;;;;;13.90;9.38;;;16.20;99.90;;;;;;5095883;28;20142;-53
2023/05/23 08:41:08;;;;;;;13.13;8.77;;;16.10;99.90;;;;;;5087992;28;20040;-56
2023/05/23 08:43:35;;;;;;;16.00;10.25;;;16.10;99.90;;;;;;5084687;28;20050;-54
2023/05/23 08:46:03;;;;;;;16.25;10.40;;;16.00;99.90;;;;;;5094399;28;20040;-54
2023/05/23 08:48:33;;;;;;;16.92;10.70;;;16.10;99.90;;;;;;5095573;28;20494;-54
2023/05/23 08:51:02;;;;;;;15.30;10.13;;;16.20;99.90;;;;;;5094643;28;20043;-54
2023/05/23 08:53:31;;;;;;;16.73;10.95;;;16.40;99.90;;;;;;5095580;28;20439;-54
2023/05/23 08:56:03;;;;;;;16.23;10.98;;;16.50;99.90;;;;;;5089095;28;20488;-54
2023/05/23 08:58:43;;;;;;;16.45;11.00;;;16.60;99.90;;;;;;5084809;28;20082;-54
2023/05/23 09:01:12;;;;;;;16.73;10.20;;;16.80;99.90;;;;;;5087047;28;20491;-53
2023/05/23 09:03:43;;;;;;;16.42;10.77;;;17.00;99.90;;;;;;5078116;28;20048;-54
2023/05/23 09:06:34;;;;;;;15.90;10.50;;;17.10;99.90;;;;;;5094965;28;20055;-55
2023/05/23 09:09:03;;;;;;;14.90;10.88;;;17.40;99.90;;;;;;5094639;28;20428;-53
2023/05/23 09:11:35;;;;;;;13.82;9.93;;;17.50;99.90;;;;;;5094704;28;20063;-54
2023/05/23 09:14:07;;;;;;;16.95;10.68;;;17.50;99.90;;;;;;5089637;28;20040;-54
2023/05/23 09:16:37;;;;;;;13.93;9.60;;;17.70;99.90;;;;;;5090924;28;20040;-54
2023/05/23 09:19:11;;;;;;;12.68;9.45;;;17.90;99.90;;;;;;5094091;28;20069;-55
2023/05/23 09:21:44;;;;;;;15.40;10.18;;;18.10;99.90;;;;;;5092331;28;20419;-54
2023/05/23 09:24:18;;;;;;;14.82;9.82;;;18.00;99.90;;;;;;5089389;28;20052;-54
2023/05/23 09:26:47;;;;;;;12.55;8.93;;;17.20;99.90;;;;;;5094631;28;20522;-54
2023/05/23 09:29:19;;;;;;;12.82;8.80;;;17.20;99.90;;;;;;5093272;28;20039;-55
2023/05/23 09:31:47;;;;;;;16.75;10.57;;;17.10;99.90;;;;;;5094488;28;20503;-54
2023/05/23 09:34:13;;;;;;;14.95;9.20;;;17.10;99.90;;;;;;5112428;28;20495;-54
2023/05/23 09:36:42;;;;;;;13.27;9.15;;;17.10;99.90;;;;;;5120392;27;20036;-56
2023/05/23 09:39:10;;;;;;;13.68;8.63;;;17.00;99.90;;;;;;5087908;28;20036;-54
2023/05/23 09:41:38;;;;;;;13.30;9.10;;;16.90;99.90;;;;;;5091661;28;20100;-54
2023/05/23 09:44:08;;;;;;;13.70;7.82;;;16.80;99.90;;;;;;5092821;28;20043;-55
2023/05/23 09:46:37;;;;;;;15.10;9.30;;;16.80;99.90;;;;;;5112770;28;20336;-54
2023/05/23 09:49:17;;;;;;;12.27;7.97;;;16.80;99.90;;;;;;5093478;28;20157;-55
2023/05/23 09:51:56;;;;;;;12.27;8.50;;;16.90;99.90;;;;;;5089363;28;20051;-54
2023/05/23 09:54:23;;;;;;;18.08;9.30;;;17.00;99.90;;;;;;5082360;28;20048;-54
2023/05/23 09:56:52;;;;;;;13.68;9.27;;;17.30;99.90;;;;;;5109905;28;20040;-55
2023/05/23 09:59:23;;;;;;;11.68;8.98;;;17.40;99.90;;;;;;5106908;28;20063;-54
2023/05/23 10:01:52;;;;;;;17.80;9.80;;;17.40;99.90;;;;;;5111906;28;20043;-54
2023/05/23 10:04:24;;;;;;;15.90;9.60;;;17.60;99.90;;;;;;5112164;28;20040;-54
2023/05/23 10:06:57;;;;;;;13.55;9.30;;;17.70;99.90;;;;;;5095507;28;20093;-54
2023/05/23 10:09:25;;;;;;;11.63;7.70;;;17.80;99.90;;;;;;5100286;28;20055;-54
2023/05/23 10:12:40;;;;;;;13.98;8.68;;;17.80;99.90;;;;;;5110590;28;20044;-54
2023/05/23 10:15:10;;;;;;;13.50;7.20;;;17.90;99.90;;;;;;5107901;28;20127;-54
2023/05/23 10:18:01;;;;;;;11.73;7.70;;;18.10;99.90;;;;;;5100507;28;20409;-54
2023/05/23 10:20:33;;;;;;;12.23;7.93;;;18.10;99.90;;;;;;5111826;28;20044;-54
2023/05/23 10:23:02;;;;;;;10.48;7.93;;;18.20;99.90;;;;;;5112340;28;20036;-54
2023/05/23 10:25:29;;;;;;;11.60;7.63;;;18.20;99.90;;;;;;5101933;28;20581;-54
2023/05/23 10:27:57;;;;;;;12.00;7.80;;;18.30;99.90;;;;;;5111392;28;20396;-54
2023/05/23 10:30:26;;;;;;;9.82;6.95;;;18.50;99.90;;;;;;5104883;28;20443;-54
2023/05/23 10:32:57;;;;;;;10.32;7.45;;;18.60;99.90;;;;;;5100011;28;20035;-54
2023/05/23 10:35:48;;;;;;;11.77;7.57;;;18.80;99.90;;;;;;5105417;28;20036;-54
2023/05/23 10:38:37;;;;;;;10.55;7.00;;;18.80;99.90;;;;;;5107949;28;20496;-54
2023/05/23 10:41:15;;;;;;;11.70;7.35;;;18.60;99.90;;;;;;5103270;28;20035;-54
2023/05/23 10:44:10;;;;;;;9.23;7.70;;;18.60;99.90;;;;;;5110498;28;20503;-54
2023/05/23 10:47:00;;;;;;;15.35;7.57;;;18.90;99.90;;;;;;5104390;28;20508;-56
2023/05/23 10:49:42;;;;;;;10.32;7.50;;;19.60;99.90;;;;;;5110879;28;20533;-54
2023/05/23 10:52:12;;;;;;;9.95;7.38;;;20.20;99.90;;;;;;5106874;28;20062;-54
2023/05/23 10:54:51;;;;;;;11.13;7.70;;;21.10;99.90;;;;;;5103238;28;20127;-56
2023/05/23 10:57:26;;;;;;;15.52;8.55;;;21.50;99.90;;;;;;5105883;28;20480;-55
2023/05/23 10:59:53;;;;;;;10.43;8.15;;;21.90;99.90;;;;;;5110735;28;20496;-54
2023/05/23 11:02:27;;;;;;;11.65;8.80;;;21.50;99.90;;;;;;5112090;28;20406;-54
2023/05/23 11:05:19;;;;;;;13.45;8.50;;;21.00;99.90;;;;;;5094701;28;20161;-55
2023/05/23 11:08:04;;;;;;;17.45;8.55;;;20.40;99.90;;;;;;5092108;28;20093;-54
2023/05/23 11:10:31;;;;;;;9.40;7.45;;;20.30;99.90;;;;;;5107009;28;20047;-54
2023/05/23 11:13:17;;;;;;;12.40;8.70;;;20.10;99.90;;;;;;5107706;28;21489;-55
2023/05/23 11:15:44;;;;;;;12.85;7.50;;;20.10;99.90;;;;;;5104595;28;20058;-56
2023/05/23 11:18:20;;;;;;;13.82;8.52;;;20.20;99.90;;;;;;5099803;28;20071;-56
2023/05/23 11:20:50;;;;;;;15.43;8.57;;;20.20;99.90;;;;;;5108832;28;20510;-54
2023/05/23 11:23:20;;;;;;;10.80;8.25;;;20.00;99.90;;;;;;5111650;28;20458;-55
2023/05/23 11:25:52;;;;;;;14.93;9.90;;;19.60;99.90;;;;;;5110652;28;20066;-54
2023/05/23 11:28:19;;;;;;;14.10;9.05;;;19.20;99.90;;;;;;5115695;28;20100;-54
2023/05/23 11:30:47;;;;;;;;;;;18.90;99.90;;;;;;5114491;28;20484;-54
2023/05/23 11:33:15;;;;;;;13.65;9.38;;;18.40;99.90;;;;;;5110107;28;19924;-54
2023/05/23 11:35:44;;;;;;;13.85;9.43;;;18.10;99.90;;;;;;5102848;28;20122;-57
2023/05/23 11:38:12;;;;;;;12.23;8.60;;;17.90;99.90;;;;;;5107678;28;20039;-54
2023/05/23 11:40:41;;;;;;;11.88;9.05;;;17.70;99.90;;;;;;5115289;28;20039;-55
2023/05/23 11:43:11;;;;;;;17.70;9.45;;;17.70;99.90;;;;;;5107787;28;20097;-55
2023/05/23 11:45:38;;;;;;;16.67;11.35;;;17.70;99.90;;;;;;5102969;28;20051;-54
2023/05/23 11:48:13;;;;;;;16.25;9.63;;;17.60;99.90;;;;;;5114267;28;20035;-55
2023/05/23 11:50:58;;;;;;;15.45;10.88;;;17.50;99.90;;;;;;5114317;28;20042;-54
2023/05/23 11:53:26;;;;;;;19.42;11.40;;;17.40;99.90;;;;;;5106392;28;20072;-54
2023/05/23 11:55:58;;;;;;;16.70;9.80;;;17.30;99.90;;;;;;5114602;28;20507;-54
2023/05/23 11:58:29;;;;;;;17.95;11.50;;;17.20;99.90;;;;;;5101177;28;20043;-54
2023/05/23 12:01:07;;;;;;;20.75;11.82;;;17.10;99.90;;;;;;5104839;28;20534;-54
2023/05/23 12:03:43;;;;;;;22.45;11.95;;;17.00;99.90;;;;;;5109971;28;20040;-54
2023/05/23 12:06:10;;;;;;;24.90;13.27;;;16.90;99.90;;;;;;5110135;28;20396;-54
2023/05/23 12:08:40;;;;;;;18.60;12.48;;;16.80;99.90;;;;;;5113819;28;20055;-53
2023/05/23 12:11:07;;;;;;;22.95;13.02;;;16.70;99.90;;;;;;5114600;28;20042;-54
2023/05/23 12:13:33;;;;;;;20.05;13.15;;;16.70;99.90;;;;;;5101662;28;20070;-54
2023/05/23 12:16:01;;;;;;;25.33;14.38;;;16.70;99.90;;;;;;5106372;28;20040;-53
2023/05/23 12:18:32;;;;;;;27.45;14.50;;;16.70;99.90;;;;;;5114602;28;20062;-54
2023/05/23 12:21:04;;;;;;;26.35;14.82;;;16.70;99.90;;;;;;5105072;28;20040;-53
2023/05/23 12:23:31;;;;;;;27.38;13.50;;;16.70;99.90;;;;;;5107755;28;20443;-54
2023/05/23 12:26:05;;;;;;;22.88;13.88;;;16.80;99.90;;;;;;5112434;28;20134;-54
2023/05/23 12:28:36;;;;;;;21.15;13.40;;;17.00;99.90;;;;;;5114457;28;20064;-53
2023/05/23 12:31:17;;;;;;;23.85;12.95;;;17.40;99.90;;;;;;5109514;28;20258;-54
2023/05/23 12:33:46;;;;;;;19.50;12.55;;;17.90;99.90;;;;;;5114336;28;20159;-57
2023/05/23 12:36:15;;;;;;;17.80;12.57;;;18.30;99.90;;;;;;5108695;28;20036;-54
2023/05/23 12:38:44;;;;;;;;;;;18.50;99.90;;;;;;5106262;28;20036;-54
2023/05/23 12:41:18;;;;;;;17.05;11.00;;;18.70;99.90;;;;;;5113726;28;19972;-54
2023/05/23 12:43:53;;;;;;;15.98;10.70;;;18.60;99.90;;;;;;5108805;28;20123;-54
2023/05/23 12:46:21;;;;;;;17.75;12.13;;;18.60;99.90;;;;;;5102245;28;20048;-54
2023/05/23 12:48:48;;;;;;;13.65;10.40;;;18.50;99.90;;;;;;5106300;28;20031;-54
2023/05/23 12:51:15;;;;;;;17.52;10.93;;;18.30;99.90;;;;;;5101641;28;20040;-54